Aviation Digital Data Service (ADDS)

Output produced by METARs form (1356 UTC 30 August 2015)
found at http://aviationweather.gov/adds/metars/
 
KRIC 301125Z 3012/3112 22003KT P6SM BKN250 
     FM301600 17007KT P6SM BKN150 
     FM302300 17004KT P6SM OVC120